Rancho Cucamonga, California
Current Conditions -  °F | °C
As of 6:53 PM on Tuesday 25 Nov 2014 (Local Time) from KONT Reporting Station
Clear Clear  
Wind Chill: 65°   Ceiling: Unl
Heat Index: 65°   Visibility: 10mi
Dew Point: 22°   Wind: 5mph
Humidity: 19%   Direction: 340°NNW
Pressure: 30.29"   Gusts: NA
Location:  34.1°N, 117.57°W
Report Text: KONT 260253Z 34004KT 10SM CLR 18/M06 A3029 RMK AO2 SLP254 T01831056 53007
Loading
Personal Weather Stations






























Interactive Weather Map New forecast layout! Learn more

10-Day Weather Forecast

Advertisements
Track Severe Weather on mobile